createdAt,value
2019-03-20T00:02:03.754Z,4.94
2019-03-20T00:04:30.822Z,4.31
2019-03-20T00:06:57.761Z,4.31
2019-03-20T00:09:24.879Z,4.37
2019-03-20T00:11:51.921Z,4.31
2019-03-20T00:14:18.850Z,4.31
2019-03-20T00:16:45.821Z,4.62
2019-03-20T00:19:12.775Z,4.81
2019-03-20T00:21:39.772Z,4.56
2019-03-20T00:24:06.773Z,4.56
2019-03-20T00:26:33.713Z,4.69
2019-03-20T00:29:00.697Z,4.31
2019-03-20T00:31:27.633Z,4.25
2019-03-20T00:33:54.598Z,4.44
2019-03-20T00:36:21.524Z,4.50
2019-03-20T00:38:48.520Z,4.56
2019-03-20T00:41:15.574Z,4.62
2019-03-20T00:43:42.539Z,4.62
2019-03-20T00:46:09.526Z,4.31
2019-03-20T00:48:36.451Z,4.31
2019-03-20T00:51:03.497Z,4.19
2019-03-20T00:53:30.503Z,4.25
2019-03-20T00:55:57.478Z,4.31
2019-03-20T00:58:24.447Z,4.25
2019-03-20T01:00:51.445Z,4.19
2019-03-20T01:03:18.443Z,4.44
2019-03-20T01:05:45.418Z,4.00
2019-03-20T01:08:12.362Z,4.50
2019-03-20T01:10:39.330Z,4.69
2019-03-20T01:13:06.386Z,4.25
2019-03-20T01:15:33.330Z,4.25
2019-03-20T01:18:00.305Z,4.25
2019-03-20T01:20:27.229Z,4.31
2019-03-20T01:22:54.144Z,4.19
2019-03-20T01:25:21.104Z,4.25
2019-03-20T01:27:48.059Z,4.25
2019-03-20T01:30:36.545Z,3.94
2019-03-20T01:33:05.494Z,4.19
2019-03-20T01:35:32.469Z,4.12
2019-03-20T01:37:59.435Z,4.19
2019-03-20T01:40:26.343Z,3.87
2019-03-20T01:42:53.321Z,3.94
2019-03-20T01:45:20.287Z,4.06
2019-03-20T01:47:47.256Z,4.06
2019-03-20T01:50:14.173Z,3.87
2019-03-20T01:52:41.146Z,3.94
2019-03-20T01:55:08.075Z,4.06
2019-03-20T01:57:35.011Z,4.00
2019-03-20T02:00:02.089Z,3.87
2019-03-20T02:02:29.093Z,3.94
2019-03-20T02:04:56.059Z,4.06
2019-03-20T02:07:23.066Z,4.25
2019-03-20T02:09:49.994Z,4.25
2019-03-20T02:12:17.016Z,4.06
2019-03-20T02:14:45.123Z,4.31
2019-03-20T02:17:12.102Z,4.12
2019-03-20T02:19:39.074Z,3.81
2019-03-20T02:22:06.034Z,3.87
2019-03-20T02:24:33.047Z,4.00
2019-03-20T02:27:00.829Z,4.06
2019-03-20T02:29:27.865Z,4.12
2019-03-20T02:31:54.910Z,3.75
2019-03-20T02:34:21.874Z,4.00
2019-03-20T02:36:48.842Z,4.12
2019-03-20T02:39:15.879Z,3.81
2019-03-20T02:41:42.933Z,3.94
2019-03-20T02:44:09.954Z,3.69
2019-03-20T02:46:36.897Z,3.87
2019-03-20T02:49:03.861Z,3.75
2019-03-20T02:51:30.790Z,3.87
2019-03-20T02:53:57.786Z,3.62
2019-03-20T02:56:24.782Z,3.62
2019-03-20T02:58:51.719Z,3.62
2019-03-20T03:01:18.656Z,3.69
2019-03-20T03:03:45.587Z,3.69
2019-03-20T03:06:12.547Z,3.56
2019-03-20T03:08:39.546Z,3.56
2019-03-20T03:11:06.555Z,3.62
2019-03-20T03:13:33.603Z,3.56
2019-03-20T03:16:00.604Z,3.37
2019-03-20T03:18:27.600Z,3.62
2019-03-20T03:20:54.624Z,3.69
2019-03-20T03:23:22.332Z,3.56
2019-03-20T03:25:50.329Z,3.56
2019-03-20T03:28:16.336Z,3.25
2019-03-20T03:30:43.327Z,3.81
2019-03-20T03:33:10.379Z,3.44
2019-03-20T03:35:37.375Z,3.37
2019-03-20T03:38:04.450Z,3.31
2019-03-20T03:40:31.448Z,3.25
2019-03-20T03:42:58.400Z,3.31
2019-03-20T03:45:25.379Z,3.50
2019-03-20T03:47:52.348Z,3.12
2019-03-20T03:50:19.343Z,3.50
2019-03-20T03:52:46.381Z,3.50
2019-03-20T03:55:13.384Z,3.44
2019-03-20T03:57:40.531Z,3.37
2019-03-20T04:00:08.862Z,3.12
2019-03-20T04:02:35.848Z,3.31
2019-03-20T04:05:03.180Z,3.31
2019-03-20T04:07:30.133Z,3.25
2019-03-20T04:09:57.077Z,3.50
2019-03-20T04:12:24.037Z,2.94
2019-03-20T04:14:51.062Z,3.37
2019-03-20T04:17:22.549Z,3.44
2019-03-20T04:19:49.520Z,3.31
2019-03-20T04:22:16.597Z,3.50
2019-03-20T04:24:43.519Z,3.19
2019-03-20T04:27:10.512Z,3.25
2019-03-20T04:29:37.475Z,3.06
2019-03-20T04:32:04.420Z,3.19
2019-03-20T04:34:31.431Z,3.06
2019-03-20T04:36:58.376Z,3.06
2019-03-20T04:39:25.351Z,3.25
2019-03-20T04:41:52.357Z,3.62
2019-03-20T04:44:19.383Z,3.56
2019-03-20T04:46:46.340Z,3.62
2019-03-20T04:49:13.310Z,3.56
2019-03-20T04:51:40.279Z,3.25
2019-03-20T04:54:07.367Z,3.37
2019-03-20T04:56:34.384Z,3.19
2019-03-20T04:59:01.558Z,3.56
2019-03-20T05:01:28.502Z,3.19
2019-03-20T05:03:55.434Z,3.19
2019-03-20T05:06:22.382Z,3.19
2019-03-20T05:08:49.310Z,3.25
2019-03-20T05:11:16.245Z,3.06
2019-03-20T05:18:38.491Z,3.25
2019-03-20T05:21:05.555Z,3.06
2019-03-20T05:23:32.486Z,3.19
2019-03-20T05:25:59.476Z,3.06
2019-03-20T05:28:26.395Z,3.00
2019-03-20T05:30:53.331Z,3.44
2019-03-20T05:33:20.374Z,3.12
2019-03-20T05:35:47.339Z,3.06
2019-03-20T05:38:14.335Z,3.37
2019-03-20T05:40:41.364Z,3.00
2019-03-20T05:43:08.348Z,2.94
2019-03-20T05:45:35.289Z,2.94
2019-03-20T05:48:02.325Z,3.06
2019-03-20T05:50:29.282Z,3.31
2019-03-20T05:52:56.268Z,3.00
2019-03-20T05:55:23.216Z,3.25
2019-03-20T05:57:50.364Z,3.25
2019-03-20T06:00:18.321Z,3.19
2019-03-20T06:02:45.277Z,3.12
2019-03-20T06:05:12.272Z,3.19
2019-03-20T06:07:39.276Z,3.50
2019-03-20T06:10:08.126Z,3.31
2019-03-20T06:12:35.141Z,3.44
2019-03-20T06:15:02.160Z,3.56
2019-03-20T06:17:29.141Z,3.56
2019-03-20T06:19:56.116Z,4.00
2019-03-20T06:22:23.089Z,3.94
2019-03-20T06:24:50.050Z,3.94
2019-03-20T06:27:17.063Z,3.94
2019-03-20T06:29:44.086Z,3.81
2019-03-20T06:32:11.290Z,3.81
2019-03-20T06:34:38.358Z,3.75
2019-03-20T06:37:05.412Z,3.81
2019-03-20T06:39:32.386Z,4.31
2019-03-20T06:41:59.316Z,4.12
2019-03-20T06:44:26.367Z,4.25
2019-03-20T06:46:53.452Z,4.31
2019-03-20T06:49:20.402Z,4.06
2019-03-20T06:51:47.386Z,4.37
2019-03-20T06:54:14.353Z,4.12
2019-03-20T06:56:41.391Z,4.50
2019-03-20T06:59:41.071Z,4.44
2019-03-20T07:02:08.087Z,4.75
2019-03-20T07:04:48.608Z,4.69
2019-03-20T07:07:23.438Z,4.69
2019-03-20T07:10:01.212Z,4.94
2019-03-20T07:12:28.196Z,4.81
2019-03-20T07:14:55.181Z,4.94
2019-03-20T07:17:22.134Z,4.94
2019-03-20T07:19:49.118Z,5.00
2019-03-20T07:22:16.141Z,5.06
2019-03-20T07:24:46.276Z,5.25
2019-03-20T07:27:13.276Z,5.31
2019-03-20T07:29:47.126Z,5.44
2019-03-20T07:32:14.134Z,5.44
2019-03-20T07:34:41.135Z,5.87
2019-03-20T07:37:08.107Z,5.75
2019-03-20T07:39:35.115Z,5.75
2019-03-20T07:42:02.189Z,5.87
2019-03-20T07:44:30.189Z,5.87
2019-03-20T07:46:56.800Z,5.87
2019-03-20T07:49:26.285Z,6.25
2019-03-20T07:51:53.348Z,6.31
2019-03-20T07:54:20.314Z,6.19
2019-03-20T07:56:47.399Z,6.62
2019-03-20T07:59:14.515Z,6.44
2019-03-20T08:01:41.716Z,6.31
2019-03-20T08:04:08.758Z,6.56
2019-03-20T08:06:35.739Z,6.44
2019-03-20T08:09:03.043Z,6.56
2019-03-20T08:11:30.054Z,6.62
2019-03-20T08:14:01.127Z,7.00
2019-03-20T08:16:28.090Z,7.12
2019-03-20T08:18:55.138Z,7.00
2019-03-20T08:21:22.238Z,6.94
2019-03-20T08:23:49.216Z,7.06
2019-03-20T08:26:16.267Z,7.19
2019-03-20T08:28:43.277Z,7.44
2019-03-20T08:31:10.294Z,7.62
2019-03-20T08:33:37.271Z,7.69
2019-03-20T08:36:04.237Z,7.62
2019-03-20T08:38:31.257Z,7.50
2019-03-20T08:40:58.261Z,7.69
2019-03-20T08:43:25.316Z,7.62
2019-03-20T08:45:52.315Z,8.00
2019-03-20T08:48:19.382Z,8.06
2019-03-20T08:50:46.348Z,8.06
2019-03-20T08:53:13.408Z,7.94
2019-03-20T08:55:40.385Z,7.94
2019-03-20T08:58:07.386Z,7.94
2019-03-20T09:00:34.610Z,8.56
2019-03-20T09:03:01.649Z,8.81
2019-03-20T09:05:28.739Z,8.75
2019-03-20T09:07:55.820Z,8.88
2019-03-20T09:10:23.098Z,9.00
2019-03-20T09:12:50.090Z,8.94
2019-03-20T09:15:17.201Z,9.19
2019-03-20T09:17:44.420Z,9.38
2019-03-20T09:20:13.682Z,9.38
2019-03-20T09:22:41.559Z,9.19
2019-03-20T09:25:10.415Z,9.56
2019-03-20T09:27:37.373Z,9.19
2019-03-20T09:30:05.565Z,9.19
2019-03-20T09:32:32.594Z,9.13
2019-03-20T09:34:59.623Z,9.25
2019-03-20T09:37:26.596Z,9.25
2019-03-20T09:39:53.590Z,9.25
2019-03-20T09:42:21.258Z,9.44
2019-03-20T09:44:48.271Z,9.31
2019-03-20T09:47:16.267Z,9.56
2019-03-20T09:49:43.230Z,9.44
2019-03-20T09:52:10.794Z,9.63
2019-03-20T09:54:37.727Z,9.75
2019-03-20T09:57:04.696Z,9.63
2019-03-20T09:59:33.383Z,9.75
2019-03-20T10:02:02.866Z,9.81
2019-03-20T10:04:28.147Z,9.75
2019-03-20T10:06:55.141Z,10.13
2019-03-20T10:09:22.095Z,10.25
2019-03-20T10:11:49.013Z,9.94
2019-03-20T10:14:16.647Z,9.94
2019-03-20T10:16:43.597Z,10.00
2019-03-20T10:19:11.354Z,10.06
2019-03-20T10:21:38.300Z,10.00
2019-03-20T10:24:05.489Z,9.88
2019-03-20T10:26:32.545Z,9.88
2019-03-20T10:28:59.508Z,10.13
2019-03-20T10:31:26.492Z,10.13
2019-03-20T10:33:53.454Z,10.50
2019-03-20T10:36:21.129Z,10.25
2019-03-20T10:38:48.843Z,10.44
2019-03-20T10:41:15.295Z,10.31
2019-03-20T10:43:42.355Z,10.44
2019-03-20T10:46:09.316Z,10.69
2019-03-20T10:48:36.347Z,10.75
2019-03-20T10:51:03.396Z,10.81
2019-03-20T10:53:30.373Z,10.75
2019-03-20T10:55:57.425Z,10.75
2019-03-20T10:58:25.012Z,10.69
2019-03-20T11:00:51.985Z,11.06
2019-03-20T11:03:18.915Z,10.94
2019-03-20T11:05:45.942Z,11.00
2019-03-20T11:08:13.242Z,11.00
2019-03-20T11:10:40.094Z,11.00
2019-03-20T11:13:08.388Z,11.00
2019-03-20T11:15:35.353Z,11.06
2019-03-20T11:18:02.335Z,11.06
2019-03-20T11:20:29.316Z,11.50
2019-03-20T11:22:56.485Z,11.56
2019-03-20T11:25:23.550Z,11.31
2019-03-20T11:27:50.999Z,11.50
2019-03-20T11:30:20.221Z,11.56
2019-03-20T11:32:48.105Z,11.38
2019-03-20T11:35:16.042Z,11.38
2019-03-20T11:37:43.147Z,11.69
2019-03-20T11:40:13.757Z,12.06
2019-03-20T11:42:43.366Z,12.13
2019-03-20T11:45:11.535Z,12.00
2019-03-20T11:47:38.547Z,11.94
2019-03-20T11:50:09.826Z,12.19
2019-03-20T11:52:36.808Z,11.94
2019-03-20T11:55:04.834Z,12.31
2019-03-20T11:57:32.200Z,12.19
2019-03-20T11:59:59.248Z,12.13
2019-03-20T12:02:28.848Z,12.56
2019-03-20T12:04:56.181Z,12.50
2019-03-20T12:07:23.375Z,12.44
2019-03-20T12:09:50.460Z,12.25
2019-03-20T12:12:17.432Z,12.25
2019-03-20T12:14:45.408Z,12.19
2019-03-20T12:17:12.447Z,12.44
2019-03-20T12:19:44.803Z,12.50
2019-03-20T12:22:07.679Z,12.31
2019-03-20T12:24:35.345Z,12.19
2019-03-20T12:27:14.198Z,12.31
2019-03-20T12:29:30.608Z,12.13
2019-03-20T12:31:57.790Z,12.06
2019-03-20T12:34:28.396Z,12.37
2019-03-20T12:36:56.742Z,12.19
2019-03-20T12:39:23.095Z,12.56
2019-03-20T12:41:50.086Z,12.13
2019-03-20T12:44:17.120Z,12.31
2019-03-20T12:46:44.214Z,12.31
2019-03-20T12:49:11.307Z,12.13
2019-03-20T12:51:38.444Z,12.06
2019-03-20T12:54:07.011Z,12.13
2019-03-20T12:56:34.615Z,12.00
2019-03-20T12:59:01.651Z,12.31
2019-03-20T13:01:30.266Z,12.19
2019-03-20T13:03:58.307Z,12.50
2019-03-20T13:06:28.886Z,12.44
2019-03-20T13:08:55.899Z,12.50
2019-03-20T13:11:22.873Z,12.69
2019-03-20T13:13:49.823Z,12.50
2019-03-20T13:16:17.547Z,12.69
2019-03-20T13:18:45.314Z,12.56
2019-03-20T13:21:12.478Z,12.81
2019-03-20T13:23:40.058Z,13.00
2019-03-20T13:26:07.044Z,13.13
2019-03-20T13:28:34.132Z,12.75
2019-03-20T13:31:07.970Z,12.94
2019-03-20T13:33:34.901Z,13.00
2019-03-20T13:36:02.005Z,12.88
2019-03-20T13:38:29.007Z,12.75
2019-03-20T13:40:56.051Z,12.50
2019-03-20T13:43:22.982Z,12.44
2019-03-20T13:45:49.984Z,12.69
2019-03-20T13:48:17.831Z,12.56
2019-03-20T13:50:44.825Z,12.88
2019-03-20T13:53:11.799Z,12.88
2019-03-20T13:55:38.870Z,12.50
2019-03-20T13:58:06.883Z,12.63
2019-03-20T14:00:33.948Z,12.81
2019-03-20T14:03:00.988Z,12.63
2019-03-20T14:05:28.038Z,12.69
2019-03-20T14:07:55.102Z,12.88
2019-03-20T14:10:25.336Z,12.69
2019-03-20T14:12:49.366Z,12.75
2019-03-20T14:15:16.534Z,12.56
2019-03-20T14:17:43.612Z,12.56
2019-03-20T14:20:13.120Z,12.63
2019-03-20T14:22:40.540Z,12.81
2019-03-20T14:25:08.697Z,12.56
2019-03-20T14:27:37.899Z,12.37
2019-03-20T14:30:08.595Z,12.50
2019-03-20T14:32:40.095Z,12.56
2019-03-20T14:35:07.433Z,12.56
2019-03-20T14:37:35.266Z,12.75
2019-03-20T14:40:02.282Z,12.44
2019-03-20T14:42:30.294Z,12.56
2019-03-20T14:44:57.572Z,12.75
2019-03-20T14:47:24.812Z,12.88
2019-03-20T14:49:52.029Z,12.88
2019-03-20T14:52:19.414Z,12.63
2019-03-20T14:54:46.460Z,12.56
2019-03-20T14:57:13.975Z,12.50
2019-03-20T14:59:41.065Z,12.44
2019-03-20T15:02:08.105Z,12.50
2019-03-20T15:04:35.084Z,12.44
2019-03-20T15:07:02.139Z,12.50
2019-03-20T15:09:29.151Z,12.56
2019-03-20T15:11:56.180Z,12.50
2019-03-20T15:14:23.164Z,12.88
2019-03-20T15:16:53.223Z,12.69
2019-03-20T15:19:20.239Z,12.56
2019-03-20T15:21:47.247Z,12.75
2019-03-20T15:24:14.185Z,12.56
2019-03-20T15:26:41.201Z,12.37
2019-03-20T15:29:08.217Z,12.63
2019-03-20T15:31:35.232Z,12.50
2019-03-20T15:34:02.235Z,12.56
2019-03-20T15:36:29.282Z,12.63
2019-03-20T15:38:56.298Z,12.75
2019-03-20T15:41:23.286Z,12.88
2019-03-20T15:43:50.280Z,12.75
2019-03-20T15:46:17.740Z,12.37
2019-03-20T15:48:45.404Z,12.69
2019-03-20T15:51:12.428Z,12.44
2019-03-20T15:53:39.380Z,12.44
2019-03-20T15:56:06.975Z,12.50
2019-03-20T16:03:31.109Z,12.50
2019-03-20T16:05:58.091Z,12.31
2019-03-20T16:08:25.068Z,12.44
2019-03-20T16:10:54.215Z,12.44
2019-03-20T16:13:21.261Z,12.56
2019-03-20T16:15:48.215Z,12.31
2019-03-20T16:18:15.195Z,12.25
2019-03-20T16:20:45.711Z,12.37
2019-03-20T16:23:12.977Z,12.25
2019-03-20T16:25:40.030Z,12.31
2019-03-20T16:28:06.998Z,12.44
2019-03-20T16:30:34.690Z,12.31
2019-03-20T16:33:01.760Z,12.37
2019-03-20T16:35:28.795Z,12.31
2019-03-20T16:37:55.830Z,12.31
2019-03-20T16:40:24.093Z,12.63
2019-03-20T16:42:51.280Z,12.25
2019-03-20T16:45:20.487Z,12.25
2019-03-20T16:47:48.443Z,12.50
2019-03-20T16:50:15.755Z,12.13
2019-03-20T16:52:43.259Z,12.13
2019-03-20T16:55:11.091Z,12.50
2019-03-20T16:57:38.144Z,12.13
2019-03-20T17:00:06.560Z,12.13
2019-03-20T17:02:33.596Z,12.00
2019-03-20T17:05:00.704Z,12.06
2019-03-20T17:07:31.042Z,12.06
2019-03-20T17:09:58.293Z,12.31
2019-03-20T17:12:25.329Z,12.06
2019-03-20T17:14:52.312Z,11.88
2019-03-20T17:17:21.531Z,11.88
2019-03-20T17:19:47.044Z,12.00
2019-03-20T17:22:15.666Z,12.13
2019-03-20T17:24:43.954Z,11.88
2019-03-20T17:27:11.179Z,11.94
2019-03-20T17:29:40.355Z,11.81
2019-03-20T17:35:07.873Z,11.94
2019-03-20T17:37:34.847Z,11.81
2019-03-20T17:40:01.867Z,11.88
2019-03-20T17:42:29.607Z,12.06
2019-03-20T17:44:56.713Z,12.19
2019-03-20T17:47:23.762Z,12.13
2019-03-20T17:49:53.469Z,12.31
2019-03-20T17:52:20.616Z,12.06
2019-03-20T17:54:47.720Z,11.81
2019-03-20T17:57:14.840Z,11.94
2019-03-20T17:59:42.554Z,11.88
2019-03-20T18:02:11.062Z,12.06
2019-03-20T18:04:39.837Z,11.88
2019-03-20T18:07:07.515Z,12.06
2019-03-20T18:09:40.617Z,12.25
2019-03-20T18:15:11.653Z,11.94
2019-03-20T18:17:38.632Z,12.06
2019-03-20T18:20:07.039Z,11.88
2019-03-20T18:22:34.139Z,11.69
2019-03-20T18:25:01.132Z,11.69
2019-03-20T18:27:28.075Z,12.06
2019-03-20T18:29:55.032Z,11.88
2019-03-20T18:32:22.118Z,11.75
2019-03-20T18:34:50.611Z,11.88
2019-03-20T18:37:18.031Z,11.81
2019-03-20T18:39:45.050Z,11.88
2019-03-20T18:42:12.762Z,11.56
2019-03-20T18:44:39.854Z,11.81
2019-03-20T18:47:07.010Z,11.69
2019-03-20T18:49:34.700Z,11.44
2019-03-20T18:52:01.795Z,11.75
2019-03-20T18:54:29.282Z,11.81
2019-03-20T18:56:56.405Z,11.31
2019-03-20T18:59:24.074Z,11.69
2019-03-20T19:01:51.379Z,11.75
2019-03-20T19:04:18.462Z,11.56
2019-03-20T19:06:45.551Z,11.56
2019-03-20T19:09:12.765Z,11.63
2019-03-20T19:11:39.844Z,11.69
2019-03-20T19:14:06.961Z,11.56
2019-03-20T19:16:34.106Z,11.56
2019-03-20T19:19:01.870Z,11.31
2019-03-20T19:21:29.235Z,11.38
2019-03-20T19:23:56.503Z,11.50
2019-03-20T19:26:23.552Z,11.63
2019-03-20T19:28:54.136Z,11.44
2019-03-20T19:31:21.464Z,11.50
2019-03-20T19:33:51.758Z,11.44
2019-03-20T19:36:19.672Z,11.38
2019-03-20T19:38:47.052Z,11.75
2019-03-20T19:41:14.103Z,11.38
2019-03-20T19:43:41.516Z,11.56
2019-03-20T19:46:08.692Z,11.69
2019-03-20T19:48:40.832Z,11.44
2019-03-20T19:51:07.969Z,11.31
2019-03-20T19:53:35.227Z,11.44
2019-03-20T19:56:03.310Z,11.63
2019-03-20T20:01:20.703Z,11.31
2019-03-20T20:03:48.301Z,11.50
2019-03-20T20:06:18.719Z,11.38
2019-03-20T20:08:45.712Z,11.38
2019-03-20T20:11:12.661Z,11.38
2019-03-20T20:13:47.106Z,11.50
2019-03-20T20:16:14.661Z,11.31
2019-03-20T20:18:41.618Z,11.44
2019-03-20T20:21:08.841Z,11.50
2019-03-20T20:23:35.856Z,11.31
2019-03-20T20:26:02.885Z,11.56
2019-03-20T20:28:31.061Z,11.56
2019-03-20T20:30:58.136Z,11.25
2019-03-20T20:33:25.114Z,11.38
2019-03-20T20:35:53.172Z,11.38
2019-03-20T20:38:20.145Z,11.25
2019-03-20T20:40:47.075Z,11.25
2019-03-20T20:43:14.219Z,11.56
2019-03-20T20:45:41.291Z,11.19
2019-03-20T20:48:08.396Z,11.31
2019-03-20T20:50:35.473Z,11.25
2019-03-20T20:53:02.449Z,11.25
2019-03-20T20:55:29.455Z,11.50
2019-03-20T20:57:56.393Z,11.44
2019-03-20T21:00:23.326Z,11.00
2019-03-20T21:02:50.424Z,11.06
2019-03-20T21:05:17.482Z,11.31
2019-03-20T21:07:45.406Z,11.19
2019-03-20T21:10:13.102Z,11.38
2019-03-20T21:12:42.752Z,11.50
2019-03-20T21:18:07.202Z,11.50
2019-03-20T21:23:48.339Z,11.56
2019-03-20T21:29:04.245Z,11.38
2019-03-20T21:34:23.175Z,11.38
2019-03-20T21:37:33.452Z,11.44
2019-03-20T21:42:50.030Z,11.44
2019-03-20T21:51:18.417Z,11.38
2019-03-20T21:56:05.282Z,11.19
2019-03-20T22:02:33.551Z,11.25
2019-03-20T22:10:27.411Z,11.19
2019-03-20T22:15:49.834Z,11.25
2019-03-20T22:19:01.089Z,11.25
2019-03-20T22:33:39.770Z,11.06
2019-03-20T22:41:02.828Z,10.94
2019-03-20T22:47:26.175Z,10.81
2019-03-20T22:54:03.305Z,10.69
